Time;durP1;ratioP1;P1;durP2;ratioP2;P2;SDS_P1;SDS_P2;PMS_P1;PMS_P2;Temp;Humidity;BMP_temperature;BMP_pressure;BME280_temperature;BME280_humidity;BME280_pressure;Samples;Min_cycle;Max_cycle;Signal;HPM_P1;HPM_P2
2023/01/15 00:00:46;;;;;;;2.10;1.88;;;;;;;;;;5035889;28;20462;-87
2023/01/15 00:03:12;;;;;;;1.67;1.57;;;;;;;;;;5035471;28;20454;-86
2023/01/15 00:05:38;;;;;;;1.42;1.17;;;;;;;;;;5034463;28;20426;-86
2023/01/15 00:08:04;;;;;;;1.77;0.85;;;;;;;;;;5036251;28;20402;-86
2023/01/15 00:10:30;;;;;;;0.90;0.60;;;;;;;;;;5036633;28;20383;-86
2023/01/15 00:12:56;;;;;;;1.17;0.70;;;;;;;;;;5036025;28;20487;-86
2023/01/15 00:15:22;;;;;;;0.80;0.60;;;;;;;;;;5035922;28;20375;-86
2023/01/15 00:17:48;;;;;;;1.70;0.80;;;;;;;;;;5036668;28;20852;-87
2023/01/15 00:20:14;;;;;;;0.90;0.60;;;;;;;;;;5039976;28;20414;-86
2023/01/15 00:22:40;;;;;;;1.00;0.60;;;;;;;;;;5024901;28;20482;-86
2023/01/15 00:27:51;;;;;;;0.95;0.52;;;;;;;;;;5038513;28;20466;-85
2023/01/15 00:30:17;;;;;;;1.00;0.60;;;;;;;;;;5032317;28;20509;-87
2023/01/15 00:32:44;;;;;;;0.80;0.60;;;;;;;;;;5029594;28;20999;-86
2023/01/15 00:35:11;;;;;;;0.60;0.50;;;;;;;;;;5045043;28;20382;-87
2023/01/15 00:37:37;;;;;;;1.15;0.70;;;;;;;;;;5041455;28;20370;-86
2023/01/15 00:40:03;;;;;;;0.63;0.60;;;;;;;;;;5029179;28;20393;-86
2023/01/15 00:42:30;;;;;;;1.10;0.70;;;;;;;;;;5048911;28;20391;-86
2023/01/15 00:44:56;;;;;;;1.33;0.68;;;;;;;;;;5047117;28;20431;-86
2023/01/15 00:47:22;;;;;;;0.73;0.50;;;;;;;;;;5030053;28;20374;-87
2023/01/15 00:49:49;;;;;;;1.45;0.80;;;;;;;;;;5029776;28;20797;-86
2023/01/15 00:52:15;;;;;;;0.63;0.63;;;;;;;;;;5046165;28;20409;-86
2023/01/15 00:54:41;;;;;;;0.98;0.70;;;;;;;;;;5042568;28;20383;-86
2023/01/15 00:57:10;;;;;;;1.50;0.70;;;;;;;;;;5048379;28;20489;-86
2023/01/15 00:59:46;;;;;;;1.50;1.00;;;;;;;;;;5048878;28;20377;-86
2023/01/15 01:02:12;;;;;;;1.10;0.70;;;;;;;;;;5046349;28;20899;-86
2023/01/15 01:04:38;;;;;;;1.60;0.80;;;;;;;;;;5045259;28;20469;-85
2023/01/15 01:07:04;;;;;;;1.00;0.77;;;;;;;;;;5046463;28;20870;-86
2023/01/15 01:09:30;;;;;;;0.93;0.60;;;;;;;;;;5020159;28;20478;-84
2023/01/15 01:11:56;;;;;;;0.63;0.52;;;;;;;;;;5040005;28;20462;-85
2023/01/15 01:14:23;;;;;;;1.23;0.80;;;;;;;;;;5036605;28;20474;-85
2023/01/15 01:16:49;;;;;;;1.60;0.63;;;;;;;;;;5013624;28;21827;-85
2023/01/15 01:19:16;;;;;;;0.88;0.70;;;;;;;;;;5044061;28;20923;-85
2023/01/15 01:21:45;;;;;;;0.93;0.77;;;;;;;;;;5072220;28;20466;-84
2023/01/15 01:24:12;;;;;;;0.85;0.65;;;;;;;;;;5072971;28;20383;-84
2023/01/15 01:26:38;;;;;;;1.60;0.60;;;;;;;;;;5061438;28;20388;-85
2023/01/15 01:29:04;;;;;;;0.80;0.60;;;;;;;;;;5070678;28;20777;-85
2023/01/15 01:31:30;;;;;;;0.40;0.40;;;;;;;;;;5053586;28;20838;-84
2023/01/15 01:33:57;;;;;;;0.88;0.60;;;;;;;;;;5070641;28;20499;-85
2023/01/15 01:36:27;;;;;;;0.45;0.40;;;;;;;;;;5075570;28;20405;-84
2023/01/15 01:38:53;;;;;;;0.90;0.43;;;;;;;;;;5075514;28;20379;-84
2023/01/15 01:41:19;;;;;;;0.57;0.50;;;;;;;;;;5075387;28;20406;-85
2023/01/15 01:43:56;;;;;;;0.65;0.47;;;;;;;;;;5057529;28;20795;-84
2023/01/15 01:46:22;;;;;;;0.60;0.50;;;;;;;;;;5075367;28;20379;-84
2023/01/15 01:48:49;;;;;;;0.80;0.40;;;;;;;;;;5075381;28;20868;-84
2023/01/15 01:51:16;;;;;;;1.20;0.50;;;;;;;;;;5074804;28;20409;-83
2023/01/15 01:53:42;;;;;;;0.57;0.40;;;;;;;;;;5075183;28;20426;-84
2023/01/15 01:56:08;;;;;;;0.75;0.40;;;;;;;;;;5075094;28;20459;-84
2023/01/15 01:58:35;;;;;;;0.52;0.30;;;;;;;;;;5057191;28;20391;-84
2023/01/15 02:01:01;;;;;;;1.00;0.40;;;;;;;;;;5058031;28;20386;-83
2023/01/15 02:03:30;;;;;;;0.80;0.40;;;;;;;;;;5061129;28;20379;-84
2023/01/15 02:05:59;;;;;;;1.83;0.63;;;;;;;;;;5074933;28;20380;-84
2023/01/15 02:08:25;;;;;;;0.88;0.50;;;;;;;;;;5065127;28;20385;-83
2023/01/15 02:10:55;;;;;;;1.23;0.52;;;;;;;;;;5065807;28;20429;-85
2023/01/15 02:13:26;;;;;;;0.80;0.43;;;;;;;;;;5074777;28;20544;-84
2023/01/15 02:15:57;;;;;;;1.05;0.35;;;;;;;;;;5074965;28;20368;-84
2023/01/15 02:18:41;;;;;;;0.40;0.38;;;;;;;;;;5074825;28;20375;-83
2023/01/15 02:21:12;;;;;;;2.05;0.30;;;;;;;;;;5074725;28;20372;-84
2023/01/15 02:23:38;;;;;;;1.00;0.30;;;;;;;;;;5074455;28;20414;-84
2023/01/15 02:26:25;;;;;;;0.50;0.40;;;;;;;;;;5074614;28;20383;-85
2023/01/15 02:28:53;;;;;;;0.40;0.30;;;;;;;;;;5065822;28;20468;-85
2023/01/15 02:31:21;;;;;;;0.40;0.40;;;;;;;;;;5062133;28;20466;-85
2023/01/15 02:33:51;;;;;;;0.60;0.50;;;;;;;;;;5074444;28;20400;-84
2023/01/15 02:36:19;;;;;;;0.85;0.60;;;;;;;;;;5074412;28;20376;-84
2023/01/15 02:38:46;;;;;;;0.60;0.40;;;;;;;;;;5056247;28;20775;-84
2023/01/15 02:41:16;;;;;;;0.43;0.40;;;;;;;;;;5060908;28;20463;-84
2023/01/15 02:43:45;;;;;;;0.50;0.40;;;;;;;;;;5074768;28;20861;-84
2023/01/15 02:46:12;;;;;;;0.30;0.30;;;;;;;;;;5056724;28;20384;-84
2023/01/15 02:48:41;;;;;;;0.75;0.45;;;;;;;;;;5074352;28;20526;-84
2023/01/15 02:51:09;;;;;;;0.35;0.30;;;;;;;;;;5074146;28;20930;-84
2023/01/15 02:53:37;;;;;;;0.50;0.30;;;;;;;;;;5065033;28;20448;-84
2023/01/15 02:56:07;;;;;;;0.38;0.30;;;;;;;;;;5055159;28;20893;-84
2023/01/15 02:58:37;;;;;;;0.60;0.30;;;;;;;;;;5066806;28;20381;-85
2023/01/15 03:01:05;;;;;;;0.35;0.30;;;;;;;;;;5053304;28;20422;-84
2023/01/15 03:03:42;;;;;;;0.60;0.40;;;;;;;;;;5074461;28;20424;-84
2023/01/15 03:06:11;;;;;;;0.60;0.40;;;;;;;;;;5075882;28;20535;-84
2023/01/15 03:08:37;;;;;;;0.95;0.40;;;;;;;;;;5092150;28;20414;-83
2023/01/15 03:11:06;;;;;;;0.80;0.30;;;;;;;;;;5093106;28;20387;-85
2023/01/15 03:13:32;;;;;;;0.90;0.30;;;;;;;;;;5090644;28;20403;-83
2023/01/15 03:18:55;;;;;;;0.67;0.50;;;;;;;;;;5074430;28;20385;-84
2023/01/15 03:21:25;;;;;;;0.28;0.20;;;;;;;;;;5074003;28;20469;-83
2023/01/15 03:23:53;;;;;;;0.63;0.40;;;;;;;;;;5039344;28;20412;-84
2023/01/15 03:26:19;;;;;;;0.85;0.30;;;;;;;;;;5050666;28;20399;-84
2023/01/15 03:28:46;;;;;;;0.30;0.25;;;;;;;;;;5062231;28;20457;-84
2023/01/15 03:31:12;;;;;;;0.60;0.20;;;;;;;;;;5072517;28;20395;-83
2023/01/15 03:33:38;;;;;;;0.30;0.28;;;;;;;;;;5073559;28;20500;-84
2023/01/15 03:36:04;;;;;;;0.30;0.30;;;;;;;;;;5064156;28;20382;-85
2023/01/15 03:38:32;;;;;;;0.75;0.30;;;;;;;;;;5073613;28;20426;-83
2023/01/15 03:41:07;;;;;;;1.20;0.28;;;;;;;;;;5072142;28;20925;-83
2023/01/15 03:43:51;;;;;;;0.30;0.30;;;;;;;;;;5073391;28;20797;-83
2023/01/15 03:46:28;;;;;;;0.30;0.30;;;;;;;;;;5073254;28;20450;-85
2023/01/15 03:48:56;;;;;;;0.40;0.28;;;;;;;;;;5073236;28;20449;-84
2023/01/15 03:51:29;;;;;;;0.37;0.30;;;;;;;;;;5072479;28;20430;-83
2023/01/15 03:53:57;;;;;;;1.10;0.35;;;;;;;;;;5055128;28;20761;-85
2023/01/15 03:56:35;;;;;;;0.47;0.30;;;;;;;;;;5055044;28;20780;-84
2023/01/15 03:59:09;;;;;;;0.45;0.20;;;;;;;;;;5073057;28;20387;-84
2023/01/15 04:01:37;;;;;;;0.65;0.22;;;;;;;;;;5055609;28;20406;-84
2023/01/15 04:04:04;;;;;;;0.45;0.20;;;;;;;;;;5072856;28;20372;-84
2023/01/15 04:06:31;;;;;;;0.95;0.30;;;;;;;;;;5068799;28;20434;-84
2023/01/15 04:08:57;;;;;;;0.45;0.20;;;;;;;;;;5057040;28;20410;-84
2023/01/15 04:11:24;;;;;;;0.50;0.30;;;;;;;;;;5077110;22;20427;-84
2023/01/15 04:13:50;;;;;;;0.22;0.20;;;;;;;;;;5052202;28;20935;-80
2023/01/15 04:16:19;;;;;;;0.90;0.20;;;;;;;;;;5070504;28;20748;-80
2023/01/15 04:18:45;;;;;;;0.30;0.30;;;;;;;;;;5072433;28;20403;-80
2023/01/15 04:21:11;;;;;;;0.33;0.20;;;;;;;;;;5053948;28;20873;-80
2023/01/15 04:23:37;;;;;;;0.20;0.13;;;;;;;;;;5071362;28;20391;-80
2023/01/15 04:26:03;;;;;;;0.15;0.15;;;;;;;;;;5054282;28;20459;-81
2023/01/15 04:28:29;;;;;;;0.73;0.20;;;;;;;;;;5072167;28;20857;-80
2023/01/15 04:30:56;;;;;;;0.80;0.30;;;;;;;;;;5071834;28;20437;-80
2023/01/15 04:33:22;;;;;;;0.32;0.20;;;;;;;;;;5072138;28;20399;-80
2023/01/15 04:35:48;;;;;;;0.70;0.30;;;;;;;;;;5072032;28;20425;-80
2023/01/15 04:38:14;;;;;;;0.27;0.20;;;;;;;;;;5071040;28;20470;-80
2023/01/15 04:46:09;;;;;;;0.40;0.30;;;;;;;;;;5054445;28;20480;-80
2023/01/15 04:48:35;;;;;;;1.27;0.20;;;;;;;;;;5060903;28;20468;-80
2023/01/15 04:51:03;;;;;;;0.20;0.20;;;;;;;;;;5064809;28;20384;-80
2023/01/15 04:53:29;;;;;;;0.40;0.20;;;;;;;;;;5070910;28;20472;-80
2023/01/15 04:56:00;;;;;;;0.60;0.30;;;;;;;;;;5073419;28;20364;-81
2023/01/15 04:58:26;;;;;;;0.20;0.20;;;;;;;;;;5071506;28;20375;-80
2023/01/15 05:00:52;;;;;;;0.40;0.25;;;;;;;;;;5071442;28;20387;-80
2023/01/15 05:03:18;;;;;;;1.25;0.20;;;;;;;;;;5070791;28;20433;-80
2023/01/15 05:05:44;;;;;;;0.30;0.20;;;;;;;;;;5071706;28;20410;-80
2023/01/15 05:08:09;;;;;;;1.30;0.20;;;;;;;;;;5071764;28;20384;-81
2023/01/15 05:10:35;;;;;;;0.43;0.20;;;;;;;;;;5070394;28;20490;-83
2023/01/15 05:13:01;;;;;;;0.30;0.30;;;;;;;;;;5070687;28;20474;-82
2023/01/15 05:15:27;;;;;;;0.60;0.40;;;;;;;;;;5053775;28;20847;-83
2023/01/15 05:17:53;;;;;;;0.25;0.25;;;;;;;;;;5034204;28;20409;-83
2023/01/15 05:20:19;;;;;;;0.40;0.25;;;;;;;;;;5052045;28;20393;-81
2023/01/15 05:22:45;;;;;;;0.60;0.20;;;;;;;;;;5042473;28;20921;-81
2023/01/15 05:25:11;;;;;;;0.30;0.20;;;;;;;;;;5064817;28;20383;-81
2023/01/15 05:27:37;;;;;;;1.30;0.20;;;;;;;;;;5071428;28;20390;-80
2023/01/15 05:30:04;;;;;;;0.45;0.20;;;;;;;;;;5054011;28;20838;-82
2023/01/15 05:32:30;;;;;;;0.80;0.22;;;;;;;;;;5033436;28;20927;-81
2023/01/15 05:34:56;;;;;;;0.57;0.30;;;;;;;;;;5058328;28;20425;-82
2023/01/15 05:37:22;;;;;;;0.50;0.30;;;;;;;;;;5053416;28;20422;-83
2023/01/15 05:39:48;;;;;;;0.40;0.20;;;;;;;;;;5051304;28;20389;-80
2023/01/15 05:42:14;;;;;;;0.25;0.20;;;;;;;;;;5051217;28;20382;-80
2023/01/15 05:44:43;;;;;;;0.90;0.30;;;;;;;;;;5051015;28;20389;-83
2023/01/15 05:47:09;;;;;;;0.43;0.20;;;;;;;;;;5055813;28;20376;-83
2023/01/15 05:49:35;;;;;;;0.93;0.30;;;;;;;;;;5036859;28;20375;-82
2023/01/15 05:52:01;;;;;;;0.20;0.20;;;;;;;;;;5052346;28;20464;-82
2023/01/15 05:54:28;;;;;;;0.30;0.20;;;;;;;;;;5053424;28;20815;-81
2023/01/15 05:56:55;;;;;;;0.98;0.28;;;;;;;;;;5051590;28;20472;-83
2023/01/15 05:59:21;;;;;;;0.33;0.20;;;;;;;;;;5051275;28;20466;-82
2023/01/15 06:01:48;;;;;;;1.13;0.30;;;;;;;;;;5061260;28;20420;-82
2023/01/15 06:04:14;;;;;;;0.30;0.20;;;;;;;;;;5050052;28;20377;-82
2023/01/15 06:06:41;;;;;;;0.30;0.28;;;;;;;;;;5064369;28;20372;-82
2023/01/15 06:09:07;;;;;;;0.40;0.20;;;;;;;;;;5058507;28;20443;-82
2023/01/15 06:11:33;;;;;;;0.50;0.25;;;;;;;;;;5052967;28;20396;-83
2023/01/15 06:13:59;;;;;;;0.55;0.40;;;;;;;;;;5056863;28;21032;-82
2023/01/15 06:16:26;;;;;;;0.40;0.40;;;;;;;;;;5060662;28;20397;-82
2023/01/15 06:18:51;;;;;;;0.20;0.20;;;;;;;;;;5055641;28;20380;-82
2023/01/15 06:21:18;;;;;;;0.20;0.20;;;;;;;;;;5074676;28;20851;-83
2023/01/15 06:23:44;;;;;;;1.10;0.23;;;;;;;;;;5071965;28;20475;-82
2023/01/15 06:26:14;;;;;;;0.30;0.30;;;;;;;;;;5054197;28;20385;-82
2023/01/15 06:28:41;;;;;;;0.50;0.30;;;;;;;;;;5055968;28;20374;-82
2023/01/15 06:31:08;;;;;;;0.33;0.20;;;;;;;;;;5069668;28;20385;-82
2023/01/15 06:33:34;;;;;;;0.93;0.20;;;;;;;;;;5068517;28;20436;-82
2023/01/15 06:36:10;;;;;;;0.40;0.20;;;;;;;;;;5074399;28;20420;-82
2023/01/15 06:38:36;;;;;;;0.30;0.20;;;;;;;;;;5069835;28;20427;-82
2023/01/15 06:41:03;;;;;;;0.52;0.30;;;;;;;;;;5071080;28;20803;-82
2023/01/15 06:48:58;;;;;;;1.13;0.90;;;;;;;;;;5074223;28;20375;-84
2023/01/15 06:51:24;;;;;;;0.68;0.40;;;;;;;;;;5073962;28;20849;-84
2023/01/15 06:53:50;;;;;;;0.40;0.30;;;;;;;;;;5074000;28;20400;-83
2023/01/15 06:56:16;;;;;;;0.50;0.35;;;;;;;;;;5076642;28;20380;-83
2023/01/15 06:58:43;;;;;;;0.38;0.38;;;;;;;;;;5073986;28;20466;-83
2023/01/15 07:01:13;;;;;;;1.00;0.25;;;;;;;;;;5073666;28;20741;-83
2023/01/15 07:03:39;;;;;;;0.60;0.40;;;;;;;;;;5073929;28;20389;-83
2023/01/15 07:06:09;;;;;;;0.50;0.30;;;;;;;;;;5059986;28;20389;-83
2023/01/15 07:08:35;;;;;;;0.38;0.28;;;;;;;;;;5059385;28;20437;-83
2023/01/15 07:11:02;;;;;;;0.32;0.32;;;;;;;;;;5065875;28;20420;-81
2023/01/15 07:13:28;;;;;;;0.70;0.40;;;;;;;;;;5073652;28;20403;-82
2023/01/15 07:15:54;;;;;;;0.50;0.32;;;;;;;;;;5073506;28;20372;-81
2023/01/15 07:18:20;;;;;;;0.33;0.30;;;;;;;;;;5072659;28;20491;-83
2023/01/15 07:20:46;;;;;;;0.30;0.30;;;;;;;;;;5073059;28;20411;-82
2023/01/15 07:23:12;;;;;;;0.15;0.15;;;;;;;;;;5073559;28;20433;-82
2023/01/15 07:25:38;;;;;;;0.30;0.20;;;;;;;;;;5072565;28;20872;-82
2023/01/15 07:28:04;;;;;;;0.32;0.30;;;;;;;;;;5063638;28;20436;-84
2023/01/15 07:30:30;;;;;;;0.40;0.30;;;;;;;;;;5058835;28;20392;-85
2023/01/15 07:32:56;;;;;;;0.30;0.30;;;;;;;;;;5055306;28;20478;-83
2023/01/15 07:35:22;;;;;;;0.40;0.30;;;;;;;;;;5055487;28;20429;-83
2023/01/15 07:37:51;;;;;;;0.60;0.40;;;;;;;;;;5073099;28;20455;-82
2023/01/15 07:40:17;;;;;;;0.50;0.40;;;;;;;;;;5077397;28;20389;-83
2023/01/15 07:50:57;;;;;;;0.40;0.20;;;;;;;;;;5069009;28;20445;-83
2023/01/15 07:53:23;;;;;;;0.65;0.22;;;;;;;;;;5072478;28;20902;-83
2023/01/15 07:55:49;;;;;;;0.25;0.25;;;;;;;;;;5073159;28;20372;-84
2023/01/15 07:58:15;;;;;;;0.30;0.30;;;;;;;;;;5065194;28;20505;-85
2023/01/15 08:00:41;;;;;;;0.52;0.30;;;;;;;;;;5069877;28;20853;-85
2023/01/15 08:03:08;;;;;;;1.30;0.40;;;;;;;;;;5071609;28;20816;-85
2023/01/15 08:05:34;;;;;;;0.20;0.20;;;;;;;;;;5065170;28;20381;-85
2023/01/15 08:08:00;;;;;;;0.30;0.30;;;;;;;;;;5067502;28;20429;-85
2023/01/15 08:10:26;;;;;;;0.30;0.20;;;;;;;;;;5081647;28;20410;-85
2023/01/15 08:15:41;;;;;;;0.60;0.40;;;;;;;;;;5060499;28;20460;-86
2023/01/15 08:18:07;;;;;;;0.40;0.38;;;;;;;;;;5072384;28;20768;-86
2023/01/15 08:20:35;;;;;;;1.15;0.50;;;;;;;;;;5072367;28;20438;-85
2023/01/15 08:23:01;;;;;;;0.50;0.30;;;;;;;;;;5072370;28;20869;-85
2023/01/15 08:25:27;;;;;;;0.50;0.30;;;;;;;;;;5072305;28;20387;-85
2023/01/15 08:27:54;;;;;;;0.90;0.47;;;;;;;;;;5072132;28;20384;-85
2023/01/15 08:30:21;;;;;;;0.50;0.30;;;;;;;;;;5072027;28;20376;-85
2023/01/15 08:32:47;;;;;;;0.50;0.25;;;;;;;;;;5054169;28;20396;-86
2023/01/15 08:35:13;;;;;;;0.30;0.30;;;;;;;;;;5069017;28;20406;-86
2023/01/15 08:37:40;;;;;;;0.60;0.20;;;;;;;;;;5071828;28;20837;-84
2023/01/15 08:40:06;;;;;;;0.43;0.30;;;;;;;;;;5071985;28;20864;-85
2023/01/15 08:42:32;;;;;;;0.45;0.20;;;;;;;;;;5072071;28;20429;-85
2023/01/15 08:44:58;;;;;;;0.20;0.20;;;;;;;;;;5071883;28;20380;-85
2023/01/15 08:47:24;;;;;;;0.13;0.10;;;;;;;;;;5072021;28;20384;-85
2023/01/15 08:49:50;;;;;;;0.20;0.20;;;;;;;;;;5071927;28;20371;-85
2023/01/15 08:52:16;;;;;;;0.40;0.30;;;;;;;;;;5071812;28;20415;-85
2023/01/15 08:54:42;;;;;;;0.20;0.20;;;;;;;;;;5071904;28;20459;-84
2023/01/15 08:57:10;;;;;;;0.30;0.30;;;;;;;;;;5071884;28;20412;-85
2023/01/15 08:59:36;;;;;;;0.40;0.40;;;;;;;;;;5074219;28;20491;-85
2023/01/15 09:02:02;;;;;;;0.30;0.30;;;;;;;;;;5071897;28;20468;-85
2023/01/15 09:04:28;;;;;;;0.90;0.20;;;;;;;;;;5071418;28;20788;-85
2023/01/15 09:06:54;;;;;;;0.43;0.30;;;;;;;;;;5058265;28;20384;-85
2023/01/15 09:09:20;;;;;;;0.20;0.20;;;;;;;;;;5071789;28;20380;-85
2023/01/15 09:11:46;;;;;;;0.20;0.20;;;;;;;;;;5071393;28;20904;-86
2023/01/15 09:14:14;;;;;;;0.63;0.20;;;;;;;;;;5071598;28;20411;-85
2023/01/15 09:16:40;;;;;;;1.00;0.10;;;;;;;;;;5071407;28;20418;-85
2023/01/15 09:19:06;;;;;;;0.10;0.10;;;;;;;;;;5071528;28;20892;-85
2023/01/15 09:21:32;;;;;;;0.17;0.17;;;;;;;;;;5071665;28;20805;-85
2023/01/15 09:23:58;;;;;;;1.60;0.40;;;;;;;;;;5083479;28;20383;-85
2023/01/15 09:26:27;;;;;;;0.43;0.30;;;;;;;;;;5084215;28;20743;-85
2023/01/15 09:28:53;;;;;;;0.70;0.70;;;;;;;;;;5080211;28;20451;-86
2023/01/15 09:31:20;;;;;;;0.47;0.47;;;;;;;;;;5082969;28;20710;-86
2023/01/15 09:33:46;;;;;;;0.40;0.30;;;;;;;;;;5090830;28;20891;-85
2023/01/15 09:36:16;;;;;;;0.30;0.28;;;;;;;;;;5071641;28;20918;-85
2023/01/15 09:38:42;;;;;;;1.30;0.40;;;;;;;;;;5071360;28;20376;-85
2023/01/15 09:42:03;;;;;;;0.40;0.20;;;;;;;;;;5071606;28;20390;-85
2023/01/15 09:44:02;;;;;;;0.20;0.20;;;;;;;;;;5073819;28;20398;-86
2023/01/15 09:46:28;;;;;;;0.30;0.30;;;;;;;;;;5064013;28;20390;-85
2023/01/15 09:49:03;;;;;;;0.68;0.28;;;;;;;;;;5071675;28;20387;-86
2023/01/15 09:51:48;;;;;;;0.50;0.40;;;;;;;;;;5075108;28;20391;-85
2023/01/15 09:54:32;;;;;;;0.40;0.30;;;;;;;;;;5075020;28;20406;-86
2023/01/15 09:56:58;;;;;;;0.40;0.40;;;;;;;;;;5075072;28;20380;-85
2023/01/15 09:59:30;;;;;;;0.73;0.73;;;;;;;;;;5075016;28;20448;-86
2023/01/15 10:01:56;;;;;;;0.45;0.40;;;;;;;;;;5075076;28;20383;-85
2023/01/15 10:04:37;;;;;;;0.30;0.30;;;;;;;;;;5074952;28;20394;-85
2023/01/15 10:07:06;;;;;;;0.22;0.22;;;;;;;;;;5062740;28;20384;-85
2023/01/15 10:09:36;;;;;;;0.50;0.50;;;;;;;;;;5064092;28;20518;-85
2023/01/15 10:15:00;;;;;;;0.20;0.20;;;;;;;;;;5034758;28;20945;-86
2023/01/15 10:17:28;;;;;;;1.75;1.13;;;;;;;;;;5024044;28;20386;-85
2023/01/15 10:19:54;;;;;;;1.90;1.75;;;;;;;;;;5031584;28;20382;-85
2023/01/15 10:22:43;;;;;;;0.60;0.60;;;;;;;;;;5034719;28;20379;-85
2023/01/15 10:25:15;;;;;;;1.23;1.13;;;;;;;;;;5034790;28;20375;-85
2023/01/15 10:27:45;;;;;;;0.82;0.80;;;;;;;;;;5031420;28;20420;-85
2023/01/15 10:30:15;;;;;;;1.58;0.98;;;;;;;;;;5039337;28;20376;-85
2023/01/15 10:32:49;;;;;;;1.15;1.05;;;;;;;;;;5039612;28;20509;-85
2023/01/15 10:35:33;;;;;;;2.42;2.22;;;;;;;;;;5048482;28;20428;-84
2023/01/15 10:38:02;;;;;;;0.52;0.52;;;;;;;;;;5048996;28;20381;-85
2023/01/15 10:40:35;;;;;;;0.45;0.40;;;;;;;;;;5048305;28;20893;-85
2023/01/15 10:43:19;;;;;;;0.80;0.30;;;;;;;;;;5034671;28;20776;-85
2023/01/15 10:45:48;;;;;;;0.25;0.25;;;;;;;;;;5033383;28;20422;-85
2023/01/15 10:48:27;;;;;;;0.50;0.50;;;;;;;;;;5033700;28;20387;-84
2023/01/15 10:50:54;;;;;;;0.40;0.40;;;;;;;;;;5036742;28;20395;-85
2023/01/15 10:53:20;;;;;;;0.40;0.32;;;;;;;;;;5033313;28;20407;-84
2023/01/15 10:55:58;;;;;;;0.50;0.50;;;;;;;;;;5034217;28;20946;-85
2023/01/15 10:58:24;;;;;;;0.50;0.50;;;;;;;;;;5032884;28;20371;-84
2023/01/15 11:00:53;;;;;;;0.28;0.28;;;;;;;;;;5033795;28;20383;-85
2023/01/15 11:03:22;;;;;;;0.40;0.30;;;;;;;;;;5033970;28;20391;-85
2023/01/15 11:05:49;;;;;;;0.60;0.50;;;;;;;;;;5022759;28;20391;-85
2023/01/15 11:08:40;;;;;;;0.40;0.40;;;;;;;;;;5031479;28;20387;-85
2023/01/15 11:19:35;;;;;;;0.90;0.50;;;;;;;;;;5058348;28;20448;-85
2023/01/15 11:19:44;;;;;;;0.45;0.40;;;;;;;;;;5073561;28;20463;-85
2023/01/15 11:22:15;;;;;;;0.80;0.60;;;;;;;;;;5055756;28;20462;-85
2023/01/15 11:24:47;;;;;;;0.88;0.50;;;;;;;;;;5055620;28;20376;-84
2023/01/15 11:27:15;;;;;;;0.47;0.47;;;;;;;;;;5073435;28;20447;-85
2023/01/15 11:29:43;;;;;;;0.50;0.30;;;;;;;;;;5073310;28;20525;-86
2023/01/15 11:32:20;;;;;;;0.43;0.25;;;;;;;;;;5073378;28;20453;-85
2023/01/15 11:34:56;;;;;;;0.32;0.32;;;;;;;;;;5073416;28;20993;-85
2023/01/15 11:37:22;;;;;;;0.40;0.30;;;;;;;;;;5073292;28;20416;-84
2023/01/15 11:39:52;;;;;;;1.48;0.40;;;;;;;;;;5073221;28;20368;-84
2023/01/15 11:50:47;;;;;;;0.50;0.50;;;;;;;;;;5092424;28;20402;-85
2023/01/15 11:53:18;;;;;;;0.98;0.30;;;;;;;;;;5072823;28;20938;-84
2023/01/15 11:55:52;;;;;;;0.40;0.40;;;;;;;;;;5072980;28;20425;-85
2023/01/15 11:58:18;;;;;;;0.73;0.60;;;;;;;;;;5072801;28;20427;-85
2023/01/15 12:00:49;;;;;;;0.40;0.40;;;;;;;;;;5072674;28;20374;-84
2023/01/15 12:03:18;;;;;;;0.50;0.43;;;;;;;;;;5072693;28;20380;-86
2023/01/15 12:05:46;;;;;;;0.65;0.40;;;;;;;;;;5062136;28;20466;-85
2023/01/15 12:08:27;;;;;;;0.50;0.50;;;;;;;;;;5069951;28;20463;-85
2023/01/15 12:11:15;;;;;;;0.50;0.40;;;;;;;;;;5071464;28;20451;-84
2023/01/15 12:13:42;;;;;;;0.55;0.47;;;;;;;;;;5005123;28;20452;-85
2023/01/15 12:16:08;;;;;;;1.60;0.40;;;;;;;;;;5072375;28;20405;-85
2023/01/15 12:18:53;;;;;;;0.52;0.43;;;;;;;;;;5072350;28;20454;-85
2023/01/15 12:21:42;;;;;;;0.52;0.50;;;;;;;;;;5072392;28;20471;-84
2023/01/15 12:24:26;;;;;;;1.10;0.60;;;;;;;;;;5025885;28;20432;-84
2023/01/15 12:27:19;;;;;;;0.70;0.70;;;;;;;;;;5072388;28;20375;-86
2023/01/15 12:29:51;;;;;;;0.85;0.70;;;;;;;;;;5072270;28;20420;-85
2023/01/15 12:32:30;;;;;;;1.00;0.70;;;;;;;;;;5071808;28;20499;-86
2023/01/15 12:35:25;;;;;;;0.70;0.50;;;;;;;;;;5081045;28;20485;-85
2023/01/15 12:37:54;;;;;;;0.63;0.50;;;;;;;;;;5055308;28;20428;-84
2023/01/15 12:40:23;;;;;;;0.68;0.60;;;;;;;;;;5050655;28;20943;-85
2023/01/15 12:45:38;;;;;;;1.08;0.88;;;;;;;;;;5070514;28;20395;-86
2023/01/15 12:48:19;;;;;;;0.70;0.60;;;;;;;;;;5062943;28;20505;-84
2023/01/15 12:50:47;;;;;;;0.73;0.60;;;;;;;;;;5064097;28;20394;-85
2023/01/15 12:53:15;;;;;;;0.40;0.40;;;;;;;;;;5068854;28;20401;-84
2023/01/15 12:55:47;;;;;;;1.40;0.50;;;;;;;;;;5085035;28;20784;-84
2023/01/15 12:58:30;;;;;;;0.70;0.40;;;;;;;;;;5067823;28;20885;-84
2023/01/15 13:01:03;;;;;;;0.68;0.45;;;;;;;;;;5085478;28;20377;-83
2023/01/15 13:03:34;;;;;;;0.98;0.60;;;;;;;;;;5084916;28;20756;-83
2023/01/15 13:06:07;;;;;;;0.80;0.60;;;;;;;;;;5058330;28;20389;-84
2023/01/15 13:08:36;;;;;;;0.60;0.50;;;;;;;;;;5071817;28;20865;-84
2023/01/15 13:11:02;;;;;;;0.60;0.40;;;;;;;;;;5071553;28;20532;-83
2023/01/15 13:13:30;;;;;;;1.20;0.70;;;;;;;;;;5071646;28;20409;-84
2023/01/15 13:16:14;;;;;;;0.88;0.65;;;;;;;;;;5071172;28;20379;-84
2023/01/15 13:18:49;;;;;;;1.00;0.55;;;;;;;;;;5073154;28;20434;-84
2023/01/15 13:21:16;;;;;;;1.13;0.70;;;;;;;;;;5072551;28;20587;-84
2023/01/15 13:24:11;;;;;;;0.80;0.50;;;;;;;;;;5070674;28;20451;-85
2023/01/15 13:26:44;;;;;;;0.57;0.57;;;;;;;;;;4975523;28;20846;-82
2023/01/15 13:29:33;;;;;;;0.95;0.60;;;;;;;;;;5073245;28;20448;-83
2023/01/15 13:31:59;;;;;;;0.90;0.80;;;;;;;;;;5057960;28;20902;-83
2023/01/15 13:34:28;;;;;;;1.23;0.80;;;;;;;;;;5056510;28;20381;-83
2023/01/15 13:36:58;;;;;;;1.13;0.88;;;;;;;;;;5055132;28;20484;-83
2023/01/15 13:39:29;;;;;;;1.65;1.17;;;;;;;;;;5041612;28;20428;-83
2023/01/15 13:44:46;;;;;;;0.90;0.75;;;;;;;;;;5070957;28;20480;-84
2023/01/15 13:47:17;;;;;;;2.10;0.80;;;;;;;;;;5062905;28;20464;-85
2023/01/15 13:49:50;;;;;;;0.80;0.60;;;;;;;;;;5063876;28;20431;-81
2023/01/15 13:52:25;;;;;;;0.93;0.80;;;;;;;;;;5072494;28;20442;-83
2023/01/15 13:54:52;;;;;;;1.50;0.90;;;;;;;;;;5075186;28;20398;-82
2023/01/15 13:57:21;;;;;;;0.77;0.70;;;;;;;;;;5075008;28;20881;-83
2023/01/15 13:59:49;;;;;;;0.77;0.60;;;;;;;;;;5066055;28;20457;-82
2023/01/15 14:02:25;;;;;;;0.85;0.50;;;;;;;;;;5092030;28;20494;-82
2023/01/15 14:04:52;;;;;;;0.82;0.50;;;;;;;;;;5070323;28;20425;-82
2023/01/15 14:07:30;;;;;;;0.52;0.40;;;;;;;;;;5064940;28;20372;-82
2023/01/15 14:10:06;;;;;;;1.00;0.60;;;;;;;;;;5074650;28;20414;-82
2023/01/15 14:12:38;;;;;;;0.60;0.55;;;;;;;;;;5071785;28;20432;-82
2023/01/15 14:15:20;;;;;;;0.55;0.50;;;;;;;;;;5074556;28;20375;-83
2023/01/15 14:17:58;;;;;;;0.52;0.50;;;;;;;;;;5061099;28;20964;-82
2023/01/15 14:20:35;;;;;;;1.67;0.57;;;;;;;;;;5060937;28;20423;-83
2023/01/15 14:23:34;;;;;;;0.90;0.60;;;;;;;;;;5064752;28;20457;-83
2023/01/15 14:26:00;;;;;;;0.73;0.70;;;;;;;;;;5039981;28;20398;-84
2023/01/15 14:28:26;;;;;;;0.75;0.60;;;;;;;;;;5074002;28;20387;-85
2023/01/15 14:31:01;;;;;;;0.77;0.57;;;;;;;;;;5058386;28;20437;-84
2023/01/15 14:33:45;;;;;;;0.90;0.80;;;;;;;;;;5065671;28;20450;-84
2023/01/15 14:36:24;;;;;;;1.63;1.23;;;;;;;;;;5073940;28;20733;-84
2023/01/15 14:38:52;;;;;;;0.85;0.80;;;;;;;;;;5074402;28;20478;-83
2023/01/15 14:41:25;;;;;;;0.68;0.45;;;;;;;;;;5073880;28;20431;-83
2023/01/15 14:43:52;;;;;;;1.42;0.50;;;;;;;;;;5072056;28;20411;-83
2023/01/15 14:46:21;;;;;;;0.63;0.50;;;;;;;;;;5083357;28;20398;-83
2023/01/15 14:48:47;;;;;;;0.65;0.40;;;;;;;;;;5073568;28;20769;-83
2023/01/15 14:51:14;;;;;;;0.93;0.70;;;;;;;;;;5074087;28;20467;-83
2023/01/15 14:53:54;;;;;;;0.60;0.60;;;;;;;;;;5074261;28;20431;-84
2023/01/15 14:56:31;;;;;;;0.77;0.77;;;;;;;;;;5073281;28;20380;-83
2023/01/15 14:59:17;;;;;;;2.00;1.48;;;;;;;;;;5076948;28;20493;-83
2023/01/15 15:01:44;;;;;;;1.40;1.08;;;;;;;;;;5073333;28;20447;-83
2023/01/15 15:04:16;;;;;;;1.50;1.02;;;;;;;;;;5075170;28;20933;-83
2023/01/15 15:06:47;;;;;;;0.85;0.73;;;;;;;;;;5071127;28;20913;-82
2023/01/15 15:09:14;;;;;;;0.60;0.50;;;;;;;;;;5073073;28;20928;-83
2023/01/15 15:14:35;;;;;;;1.45;0.65;;;;;;;;;;5067103;28;20464;-85
2023/01/15 15:17:05;;;;;;;1.73;0.80;;;;;;;;;;5072015;28;20383;-83
2023/01/15 15:19:44;;;;;;;1.65;0.60;;;;;;;;;;5072823;28;20467;-83
2023/01/15 15:22:12;;;;;;;1.33;0.60;;;;;;;;;;5078196;28;20432;-83
2023/01/15 15:24:44;;;;;;;1.20;1.10;;;;;;;;;;5072361;28;20465;-83
2023/01/15 15:27:15;;;;;;;1.40;0.70;;;;;;;;;;5068670;28;20468;-83
2023/01/15 15:29:41;;;;;;;1.10;0.80;;;;;;;;;;5073310;28;20466;-83
2023/01/15 15:32:10;;;;;;;1.02;0.90;;;;;;;;;;5073363;28;20740;-83
2023/01/15 15:34:39;;;;;;;1.17;0.80;;;;;;;;;;5073419;28;20560;-83
2023/01/15 15:37:06;;;;;;;1.02;0.60;;;;;;;;;;5073401;28;20390;-83
2023/01/15 15:39:38;;;;;;;1.55;0.82;;;;;;;;;;5075298;28;20783;-83
2023/01/15 15:50:28;;;;;;;2.78;1.50;;;;;;;;;;5072937;28;20394;-85
2023/01/15 15:52:56;;;;;;;2.20;1.60;;;;;;;;;;5072993;28;20376;-84
2023/01/15 15:55:24;;;;;;;1.88;1.00;;;;;;;;;;5072858;28;20376;-85
2023/01/15 15:57:52;;;;;;;2.30;1.27;;;;;;;;;;5072805;28;20458;-85